createdAt,value
2019-05-03T00:00:11.785Z,29.50
2019-05-03T00:02:52.269Z,29.60
2019-05-03T00:05:44.104Z,29.60
2019-05-03T00:08:13.946Z,29.60
2019-05-03T00:10:43.797Z,29.50
2019-05-03T00:13:14.362Z,29.50
2019-05-03T00:16:02.961Z,29.60
2019-05-03T00:18:33.007Z,29.60
2019-05-03T00:21:02.866Z,29.60
2019-05-03T00:23:32.637Z,29.50
2019-05-03T00:26:02.833Z,29.50
2019-05-03T00:28:32.792Z,29.60
2019-05-03T00:31:04.402Z,29.60
2019-05-03T00:33:35.931Z,29.60
2019-05-03T00:36:28.139Z,29.60
2019-05-03T00:39:03.334Z,29.60
2019-05-03T00:41:33.130Z,29.60
2019-05-03T00:44:02.939Z,29.70
2019-05-03T00:46:32.823Z,29.60
2019-05-03T00:49:03.772Z,29.60
2019-05-03T00:51:34.659Z,29.70
2019-05-03T00:54:04.456Z,29.70
2019-05-03T00:56:34.242Z,29.70
2019-05-03T00:59:04.407Z,29.20
2019-05-03T01:01:34.757Z,29.70
2019-05-03T01:04:05.933Z,29.60
2019-05-03T01:06:35.799Z,29.60
2019-05-03T01:09:11.830Z,29.60
2019-05-03T01:11:41.898Z,29.60
2019-05-03T01:14:12.229Z,29.60
2019-05-03T01:16:42.705Z,29.60
2019-05-03T01:19:12.922Z,29.70
2019-05-03T01:21:42.717Z,29.70
2019-05-03T01:24:12.494Z,29.70
2019-05-03T01:26:42.333Z,29.70
2019-05-03T01:29:13.654Z,29.70
2019-05-03T01:31:43.406Z,29.70
2019-05-03T01:34:13.154Z,29.70
2019-05-03T01:36:42.922Z,29.70
2019-05-03T01:39:12.847Z,29.70
2019-05-03T01:41:42.666Z,29.70
2019-05-03T01:44:12.527Z,29.70
2019-05-03T01:46:42.503Z,29.80
2019-05-03T01:49:32.016Z,29.70
2019-05-03T01:52:21.799Z,29.80
2019-05-03T01:54:52.171Z,29.70
2019-05-03T01:57:22.186Z,29.80
2019-05-03T01:59:52.203Z,29.80
2019-05-03T02:02:48.271Z,29.70
2019-05-03T02:05:36.018Z,29.80
2019-05-03T02:08:05.924Z,29.70
2019-05-03T02:10:35.756Z,29.70
2019-05-03T02:13:05.665Z,29.70
2019-05-03T02:15:35.418Z,29.70
2019-05-03T02:18:05.248Z,29.80
2019-05-03T02:20:35.199Z,29.70
2019-05-03T02:23:05.231Z,29.80
2019-05-03T02:25:35.130Z,29.80
2019-05-03T02:28:05.503Z,29.80
2019-05-03T02:30:36.599Z,29.80
2019-05-03T02:33:07.419Z,29.80
2019-05-03T02:35:37.260Z,29.70
2019-05-03T02:38:07.555Z,29.70
2019-05-03T02:40:37.415Z,29.80
2019-05-03T02:43:19.096Z,29.70
2019-05-03T02:46:25.336Z,29.70
2019-05-03T02:49:02.546Z,29.70
2019-05-03T02:51:35.841Z,29.80
2019-05-03T02:54:05.558Z,29.70
2019-05-03T02:56:36.055Z,29.80
2019-05-03T02:59:06.455Z,29.80
2019-05-03T03:01:36.675Z,29.80
2019-05-03T03:04:06.585Z,29.80
2019-05-03T03:06:37.863Z,29.70
2019-05-03T03:09:08.378Z,29.70
2019-05-03T03:11:39.867Z,29.70
2019-05-03T03:14:13.146Z,29.70
2019-05-03T03:16:45.868Z,29.70
2019-05-03T03:19:17.567Z,29.70
2019-05-03T03:21:50.437Z,29.70
2019-05-03T03:24:25.639Z,29.70
2019-05-03T03:26:56.707Z,29.70
2019-05-03T03:29:28.793Z,29.70
2019-05-03T03:32:28.398Z,29.70
2019-05-03T03:35:21.462Z,29.70
2019-05-03T03:37:46.770Z,29.80
2019-05-03T03:40:17.811Z,29.80
2019-05-03T03:42:50.221Z,29.70
2019-05-03T03:45:20.159Z,29.80
2019-05-03T03:47:55.818Z,29.80
2019-05-03T03:50:26.194Z,29.80
2019-05-03T03:52:59.538Z,29.80
2019-05-03T03:55:32.480Z,29.80
2019-05-03T03:58:02.903Z,29.70
2019-05-03T04:00:32.720Z,29.70
2019-05-03T04:03:05.762Z,29.70
2019-05-03T04:05:35.842Z,29.80
2019-05-03T04:08:06.274Z,29.70
2019-05-03T04:10:37.368Z,29.70
2019-05-03T04:13:09.625Z,29.70
2019-05-03T04:16:02.104Z,29.70
2019-05-03T04:18:37.120Z,29.70
2019-05-03T04:21:07.337Z,29.70
2019-05-03T04:23:38.184Z,29.70
2019-05-03T04:26:09.440Z,29.70
2019-05-03T04:28:39.652Z,29.70
2019-05-03T04:31:11.096Z,29.70
2019-05-03T04:33:41.125Z,29.70
2019-05-03T04:36:11.205Z,29.70
2019-05-03T04:38:40.968Z,29.70
2019-05-03T04:41:10.821Z,29.70
2019-05-03T04:43:40.602Z,29.70
2019-05-03T04:46:20.910Z,29.80
2019-05-03T04:48:51.565Z,29.70
2019-05-03T04:51:21.355Z,29.70
2019-05-03T04:53:57.716Z,29.70
2019-05-03T04:56:27.763Z,29.70
2019-05-03T04:58:57.519Z,29.70
2019-05-03T05:01:27.302Z,29.70
2019-05-03T05:03:57.070Z,29.70
2019-05-03T05:06:26.838Z,29.70
2019-05-03T05:08:56.635Z,29.70
2019-05-03T05:11:26.533Z,29.70
2019-05-03T05:13:56.480Z,29.70
2019-05-03T05:16:26.279Z,29.70
2019-05-03T05:19:00.099Z,29.70
2019-05-03T05:21:35.571Z,29.70
2019-05-03T05:24:06.348Z,29.70
2019-05-03T05:26:58.454Z,29.70
2019-05-03T05:29:30.444Z,29.70
2019-05-03T05:32:02.073Z,29.70
2019-05-03T05:34:32.125Z,29.70
2019-05-03T05:37:02.794Z,29.70
2019-05-03T05:39:32.550Z,29.70
2019-05-03T05:42:04.434Z,29.70
2019-05-03T05:44:35.200Z,29.70
2019-05-03T05:47:15.080Z,29.70
2019-05-03T05:50:04.997Z,29.70
2019-05-03T05:52:35.074Z,29.60
2019-05-03T05:55:30.710Z,29.60
2019-05-03T05:58:19.619Z,29.70
2019-05-03T06:01:14.750Z,29.70
2019-05-03T06:03:44.926Z,29.70
2019-05-03T06:06:20.972Z,29.70
2019-05-03T06:09:00.574Z,29.70
2019-05-03T06:11:40.114Z,29.70
2019-05-03T06:14:15.283Z,29.70
2019-05-03T06:17:03.203Z,29.70
2019-05-03T06:19:37.534Z,29.70
2019-05-03T06:22:26.499Z,29.60
2019-05-03T06:25:01.522Z,29.60
2019-05-03T06:27:35.434Z,29.70
2019-05-03T06:30:15.046Z,29.70
2019-05-03T06:32:46.625Z,30.20
2019-05-03T06:35:17.134Z,30.50
2019-05-03T06:37:49.304Z,30.50
2019-05-03T06:40:19.316Z,30.70
2019-05-03T06:42:54.569Z,30.80
2019-05-03T06:45:20.990Z,30.90
2019-05-03T06:47:51.867Z,30.80
2019-05-03T06:50:25.212Z,30.80
2019-05-03T06:52:54.817Z,30.80
2019-05-03T06:55:24.990Z,30.80
2019-05-03T06:57:57.166Z,31.00
2019-05-03T07:01:01.499Z,31.00
2019-05-03T07:03:37.424Z,31.00
2019-05-03T07:06:34.507Z,30.80
2019-05-03T07:09:05.364Z,31.00
2019-05-03T07:11:35.962Z,31.30
2019-05-03T07:14:05.845Z,31.40
2019-05-03T07:16:35.830Z,31.20
2019-05-03T07:19:06.318Z,31.10
2019-05-03T07:21:36.253Z,30.70
2019-05-03T07:24:06.073Z,30.80
2019-05-03T07:26:36.589Z,30.90
2019-05-03T07:29:06.352Z,30.70
2019-05-03T07:31:38.674Z,30.50
2019-05-03T07:34:08.498Z,30.40
2019-05-03T07:36:41.141Z,30.30
2019-05-03T07:39:10.976Z,30.10
2019-05-03T07:41:40.782Z,30.00
2019-05-03T07:44:10.606Z,30.00
2019-05-03T07:46:40.361Z,29.90
2019-05-03T07:49:10.124Z,29.80
2019-05-03T07:51:41.910Z,29.80
2019-05-03T07:54:11.925Z,29.60
2019-05-03T07:56:50.254Z,29.60
2019-05-03T07:59:20.019Z,29.40
2019-05-03T08:01:52.074Z,29.50
2019-05-03T08:04:21.930Z,29.50
2019-05-03T08:06:51.706Z,29.60
2019-05-03T08:09:21.934Z,29.40
2019-05-03T08:11:51.704Z,29.50
2019-05-03T08:14:21.465Z,29.50
2019-05-03T08:16:51.506Z,29.60
2019-05-03T08:19:24.496Z,29.60
2019-05-03T08:21:56.444Z,29.70
2019-05-03T08:24:25.434Z,29.60
2019-05-03T08:26:55.844Z,29.60
2019-05-03T08:29:27.123Z,29.50
2019-05-03T08:32:09.643Z,29.60
2019-05-03T08:34:50.594Z,29.60
2019-05-03T08:37:35.463Z,29.50
2019-05-03T08:40:06.339Z,29.60
2019-05-03T08:42:36.230Z,29.50
2019-05-03T08:45:08.090Z,29.50
2019-05-03T08:47:38.045Z,29.40
2019-05-03T08:50:07.972Z,29.40
2019-05-03T08:52:37.743Z,29.40
2019-05-03T08:55:08.264Z,29.30
2019-05-03T08:57:38.107Z,29.30
2019-05-03T09:00:14.372Z,29.20
2019-05-03T09:02:44.710Z,29.10
2019-05-03T09:05:15.706Z,29.00
2019-05-03T09:07:46.627Z,29.10
2019-05-03T09:10:24.931Z,29.10
2019-05-03T09:13:15.072Z,29.10
2019-05-03T09:15:45.186Z,28.90
2019-05-03T09:18:17.448Z,29.40
2019-05-03T09:20:47.131Z,28.80
2019-05-03T09:23:17.099Z,28.80
2019-05-03T09:25:47.133Z,28.70
2019-05-03T09:28:16.901Z,28.80
2019-05-03T09:30:48.810Z,28.70
2019-05-03T09:33:18.641Z,28.60
2019-05-03T09:35:48.418Z,28.40
2019-05-03T09:38:19.507Z,28.50
2019-05-03T09:40:51.945Z,28.40
2019-05-03T09:43:21.230Z,28.20
2019-05-03T09:45:51.006Z,27.90
2019-05-03T09:48:20.837Z,28.00
2019-05-03T09:50:50.638Z,28.00
2019-05-03T09:53:22.310Z,28.10
2019-05-03T09:55:52.819Z,28.10
2019-05-03T09:58:22.719Z,28.10
2019-05-03T10:00:52.932Z,28.10
2019-05-03T10:03:22.826Z,28.20
2019-05-03T10:05:52.617Z,28.20
2019-05-03T10:08:22.522Z,28.30
2019-05-03T10:11:11.122Z,28.30
2019-05-03T10:13:42.038Z,28.30
2019-05-03T10:16:12.500Z,28.30
2019-05-03T10:18:42.279Z,28.40
2019-05-03T10:21:12.090Z,28.40
2019-05-03T10:23:42.101Z,28.30
2019-05-03T10:26:14.985Z,28.20
2019-05-03T10:28:44.511Z,28.20
2019-05-03T10:31:15.235Z,28.20
2019-05-03T10:33:50.598Z,28.20
2019-05-03T10:36:20.390Z,28.30
2019-05-03T10:38:50.983Z,28.20
2019-05-03T10:41:21.588Z,28.20
2019-05-03T10:43:51.702Z,28.20
2019-05-03T10:46:21.511Z,28.20
2019-05-03T10:48:51.290Z,28.20
2019-05-03T10:51:22.163Z,28.20
2019-05-03T10:53:57.153Z,28.20
2019-05-03T10:56:41.742Z,28.20
2019-05-03T10:59:11.565Z,28.20
2019-05-03T11:02:00.530Z,28.10
2019-05-03T11:04:31.444Z,28.00
2019-05-03T11:07:01.379Z,28.00
2019-05-03T11:09:31.143Z,28.10
2019-05-03T11:12:02.819Z,28.10
2019-05-03T11:14:34.854Z,28.10
2019-05-03T11:17:05.709Z,28.10
2019-05-03T11:19:35.895Z,28.00
2019-05-03T11:22:06.286Z,28.00
2019-05-03T11:24:36.928Z,28.00
2019-05-03T11:27:12.666Z,28.00
2019-05-03T11:29:44.870Z,27.90
2019-05-03T11:32:27.332Z,28.00
2019-05-03T11:35:11.672Z,28.00
2019-05-03T11:37:58.215Z,27.90
2019-05-03T11:40:28.739Z,27.90
2019-05-03T11:43:00.995Z,27.90
2019-05-03T11:45:30.948Z,27.90
2019-05-03T11:48:09.355Z,27.80
2019-05-03T11:50:39.279Z,27.80
2019-05-03T11:53:09.174Z,27.80
2019-05-03T11:55:39.158Z,27.80
2019-05-03T11:58:20.253Z,27.90
2019-05-03T12:01:13.106Z,27.80
2019-05-03T12:03:55.545Z,27.80
2019-05-03T12:06:25.566Z,27.90
2019-05-03T12:08:55.577Z,27.90
2019-05-03T12:11:26.735Z,27.90
2019-05-03T12:14:15.229Z,28.00
2019-05-03T12:17:14.318Z,27.90
2019-05-03T12:19:30.604Z,28.00
2019-05-03T12:21:58.700Z,28.00
2019-05-03T12:24:29.657Z,27.80
2019-05-03T12:27:00.408Z,27.80
2019-05-03T12:29:32.082Z,27.90
2019-05-03T12:32:02.390Z,27.80
2019-05-03T12:34:35.153Z,27.80
2019-05-03T12:37:05.302Z,27.80
2019-05-03T12:39:36.550Z,27.70
2019-05-03T12:42:06.456Z,27.70
2019-05-03T12:44:36.219Z,27.70
2019-05-03T12:47:06.241Z,27.70
2019-05-03T12:49:36.224Z,27.70
2019-05-03T12:52:06.068Z,27.60
2019-05-03T12:54:36.006Z,27.60
2019-05-03T12:57:05.995Z,27.40
2019-05-03T12:59:47.872Z,27.40
2019-05-03T13:02:24.890Z,27.30
2019-05-03T13:04:56.986Z,27.30
2019-05-03T13:07:35.718Z,27.30
2019-05-03T13:10:06.375Z,27.30
2019-05-03T13:12:49.678Z,27.30
2019-05-03T13:15:08.481Z,27.30
2019-05-03T13:17:39.671Z,27.30
2019-05-03T13:20:11.962Z,27.30
2019-05-03T13:22:41.915Z,27.20
2019-05-03T13:25:15.489Z,27.20
2019-05-03T13:27:46.307Z,27.20
2019-05-03T13:30:17.632Z,27.20
2019-05-03T13:32:47.639Z,27.30
2019-05-03T13:35:17.461Z,27.30
2019-05-03T13:37:47.578Z,27.30
2019-05-03T13:40:18.407Z,27.30
2019-05-03T13:42:57.131Z,27.30
2019-05-03T13:45:19.750Z,27.30
2019-05-03T13:47:49.555Z,27.30
2019-05-03T13:50:19.498Z,27.30
2019-05-03T13:52:51.567Z,27.30
2019-05-03T13:55:21.962Z,27.30
2019-05-03T13:57:54.693Z,25.20
2019-05-03T14:00:24.678Z,25.10
2019-05-03T14:02:56.363Z,24.80
2019-05-03T14:05:26.310Z,25.30
2019-05-03T14:07:56.523Z,25.60
2019-05-03T14:10:26.596Z,25.70
2019-05-03T14:12:56.809Z,25.30
2019-05-03T14:15:27.010Z,25.50
2019-05-03T14:17:56.992Z,25.40
2019-05-03T14:20:36.550Z,25.30
2019-05-03T14:23:06.411Z,25.40
2019-05-03T14:25:36.234Z,25.40
2019-05-03T14:28:06.947Z,25.50
2019-05-03T14:30:37.479Z,25.60
2019-05-03T14:33:07.306Z,25.50
2019-05-03T14:35:37.081Z,25.40
2019-05-03T14:38:06.840Z,25.40
2019-05-03T14:40:37.134Z,25.30
2019-05-03T14:43:07.008Z,25.20
2019-05-03T14:45:37.986Z,25.20
2019-05-03T14:48:08.006Z,25.20
2019-05-03T14:50:38.843Z,25.20
2019-05-03T14:53:08.826Z,25.20
2019-05-03T14:55:47.030Z,25.20
2019-05-03T14:58:35.276Z,25.20
2019-05-03T15:01:11.854Z,25.20
2019-05-03T15:03:41.657Z,25.20
2019-05-03T15:06:11.428Z,25.10
2019-05-03T15:08:41.227Z,25.00
2019-05-03T15:11:11.065Z,25.00
2019-05-03T15:13:40.906Z,25.00
2019-05-03T15:16:10.707Z,25.00
2019-05-03T15:18:40.527Z,25.10
2019-05-03T15:21:10.278Z,25.20
2019-05-03T15:23:40.046Z,25.50
2019-05-03T15:26:09.924Z,25.10
2019-05-03T15:28:40.542Z,25.10
2019-05-03T15:31:10.430Z,25.10
2019-05-03T15:33:41.301Z,25.00
2019-05-03T15:36:11.137Z,24.70
2019-05-03T15:38:40.910Z,24.70
2019-05-03T15:41:10.672Z,24.80
2019-05-03T15:43:59.930Z,24.80
2019-05-03T15:46:48.779Z,24.60
2019-05-03T15:49:19.587Z,24.50
2019-05-03T15:51:49.607Z,24.40
2019-05-03T15:54:19.444Z,24.30
2019-05-03T15:56:49.214Z,24.40
2019-05-03T15:59:18.979Z,24.40
2019-05-03T16:01:48.739Z,24.40
2019-05-03T16:04:18.510Z,24.50
2019-05-03T16:06:48.703Z,24.50
2019-05-03T16:09:19.515Z,25.20
2019-05-03T16:11:49.272Z,24.80
2019-05-03T16:14:19.030Z,24.80
2019-05-03T16:16:48.811Z,24.80
2019-05-03T16:19:18.606Z,24.80
2019-05-03T16:21:48.352Z,24.90
2019-05-03T16:24:19.009Z,24.90
2019-05-03T16:27:07.255Z,25.00
2019-05-03T16:29:37.029Z,24.90
2019-05-03T16:32:07.286Z,25.00
2019-05-03T16:34:37.818Z,25.00
2019-05-03T16:37:07.574Z,25.00
2019-05-03T16:39:37.342Z,25.00
2019-05-03T16:42:08.276Z,25.00
2019-05-03T16:44:38.842Z,25.10
2019-05-03T16:47:08.607Z,25.10
2019-05-03T16:49:38.374Z,25.10
2019-05-03T16:52:08.219Z,25.00
2019-05-03T16:54:37.959Z,25.10
2019-05-03T16:57:07.744Z,25.10
2019-05-03T16:59:37.557Z,25.10
2019-05-03T17:02:07.422Z,25.10
2019-05-03T17:04:45.711Z,25.10
2019-05-03T17:07:30.267Z,25.10
2019-05-03T17:10:07.989Z,25.10
2019-05-03T17:12:38.107Z,25.10
2019-05-03T17:15:08.559Z,25.10
2019-05-03T17:17:38.387Z,25.10
2019-05-03T17:20:08.645Z,25.20
2019-05-03T17:22:39.682Z,25.10
2019-05-03T17:25:09.450Z,25.20
2019-05-03T17:27:41.259Z,25.20
2019-05-03T17:30:11.371Z,25.20
2019-05-03T17:32:44.608Z,25.20
2019-05-03T17:35:14.580Z,25.20
2019-05-03T17:37:45.157Z,25.20
2019-05-03T17:40:35.211Z,25.20
2019-05-03T17:43:15.246Z,25.20
2019-05-03T17:45:48.949Z,25.20
2019-05-03T17:48:20.211Z,25.20
2019-05-03T17:50:50.233Z,25.20
2019-05-03T17:53:30.633Z,25.20
2019-05-03T17:56:08.461Z,25.20
2019-05-03T17:58:59.642Z,25.20
2019-05-03T18:01:47.474Z,25.20
2019-05-03T18:04:24.915Z,25.30
2019-05-03T18:07:14.873Z,25.30
2019-05-03T18:09:44.910Z,25.30
2019-05-03T18:12:15.170Z,25.30
2019-05-03T18:14:45.638Z,25.30
2019-05-03T18:17:15.390Z,25.30
2019-05-03T18:19:47.632Z,25.30
2019-05-03T18:22:16.693Z,25.30
2019-05-03T18:24:46.522Z,25.30
2019-05-03T18:27:16.283Z,25.30
2019-05-03T18:29:46.301Z,25.70
2019-05-03T18:32:16.710Z,25.30
2019-05-03T18:34:47.543Z,25.30
2019-05-03T18:37:17.296Z,25.30
2019-05-03T18:39:47.110Z,25.30
2019-05-03T18:42:24.610Z,25.30
2019-05-03T18:44:58.751Z,25.40
2019-05-03T18:47:28.528Z,25.40
2019-05-03T18:49:58.278Z,25.40
2019-05-03T18:52:28.215Z,25.40
2019-05-03T18:54:57.997Z,25.40
2019-05-03T18:57:27.929Z,25.40
2019-05-03T18:59:57.803Z,25.40
2019-05-03T19:02:27.546Z,25.40
2019-05-03T19:04:58.605Z,25.80
2019-05-03T19:07:54.589Z,25.40
2019-05-03T19:10:32.925Z,25.40
2019-05-03T19:13:27.862Z,25.40
2019-05-03T19:15:58.622Z,25.40
2019-05-03T19:18:30.534Z,25.40
2019-05-03T19:21:00.764Z,25.40
2019-05-03T19:23:30.591Z,25.40
2019-05-03T19:26:00.338Z,25.40
2019-05-03T19:28:30.141Z,25.50
2019-05-03T19:31:02.482Z,25.50
2019-05-03T19:33:32.218Z,25.50
2019-05-03T19:36:01.974Z,25.40
2019-05-03T19:38:31.803Z,25.40
2019-05-03T19:41:01.554Z,25.50
2019-05-03T19:43:31.307Z,25.50
2019-05-03T19:46:02.311Z,25.50
2019-05-03T19:48:32.058Z,25.50
2019-05-03T19:51:05.722Z,25.50
2019-05-03T19:53:55.114Z,25.50
2019-05-03T19:56:25.710Z,25.90
2019-05-03T19:59:00.274Z,25.50
2019-05-03T20:01:55.219Z,25.50
2019-05-03T20:04:34.274Z,25.50
2019-05-03T20:07:14.946Z,25.50
2019-05-03T20:09:44.689Z,25.60
2019-05-03T20:12:15.222Z,25.50
2019-05-03T20:14:45.278Z,25.50
2019-05-03T20:17:15.063Z,25.60
2019-05-03T20:19:45.176Z,25.50
2019-05-03T20:22:15.314Z,25.60
2019-05-03T20:24:45.730Z,25.60
2019-05-03T20:27:15.487Z,25.60
2019-05-03T20:29:46.305Z,25.60
2019-05-03T20:32:16.717Z,25.60
2019-05-03T20:34:47.755Z,25.60
2019-05-03T20:37:17.502Z,25.60
2019-05-03T20:39:47.335Z,25.60
2019-05-03T20:42:36.226Z,25.60
2019-05-03T20:45:14.367Z,25.70
2019-05-03T20:47:55.974Z,25.60
2019-05-03T20:50:27.378Z,25.60
2019-05-03T20:52:57.398Z,25.70
2019-05-03T20:55:27.154Z,25.60
2019-05-03T20:57:56.922Z,25.60
2019-05-03T21:00:26.946Z,25.70
2019-05-03T21:02:57.480Z,25.70
2019-05-03T21:05:31.743Z,25.70
2019-05-03T21:07:59.078Z,25.70
2019-05-03T21:10:29.770Z,25.70
2019-05-03T21:12:59.526Z,25.70
2019-05-03T21:15:35.938Z,25.60
2019-05-03T21:18:16.651Z,25.70
2019-05-03T21:20:55.464Z,25.70
2019-05-03T21:23:26.466Z,25.70
2019-05-03T21:26:13.052Z,25.70
2019-05-03T21:28:38.626Z,25.70
2019-05-03T21:31:09.017Z,25.80
2019-05-03T21:33:40.066Z,25.70
2019-05-03T21:36:09.832Z,25.70
2019-05-03T21:38:41.036Z,25.70
2019-05-03T21:41:11.003Z,25.70
2019-05-03T21:43:42.186Z,25.70
2019-05-03T21:46:17.663Z,25.80
2019-05-03T21:48:52.854Z,25.80
2019-05-03T21:51:24.374Z,25.80
2019-05-03T21:53:54.105Z,25.80
2019-05-03T21:56:25.004Z,25.80
2019-05-03T21:58:55.281Z,25.80
2019-05-03T22:01:26.070Z,25.80
2019-05-03T22:03:55.962Z,25.80
2019-05-03T22:06:25.863Z,25.80
2019-05-03T22:08:58.082Z,25.80
2019-05-03T22:11:27.194Z,25.80
2019-05-03T22:13:58.834Z,25.80
2019-05-03T22:16:42.151Z,25.80
2019-05-03T22:19:16.268Z,25.90
2019-05-03T22:22:14.790Z,25.90
2019-05-03T22:24:47.838Z,25.90
2019-05-03T22:27:19.555Z,25.90
2019-05-03T22:29:49.347Z,25.90
2019-05-03T22:32:19.781Z,25.90
2019-05-03T22:34:51.030Z,25.90
2019-05-03T22:37:20.770Z,25.90
2019-05-03T22:39:50.518Z,25.90
2019-05-03T22:42:21.177Z,25.90
2019-05-03T22:44:51.122Z,25.90
2019-05-03T22:47:21.902Z,25.90
2019-05-03T22:49:51.664Z,26.00
2019-05-03T22:52:21.413Z,26.00
2019-05-03T22:54:51.165Z,26.00
2019-05-03T22:57:20.983Z,26.00
2019-05-03T22:59:50.807Z,25.90
2019-05-03T23:02:21.522Z,26.00
2019-05-03T23:04:51.346Z,26.00
2019-05-03T23:07:21.120Z,26.00
2019-05-03T23:09:50.884Z,26.00
2019-05-03T23:12:20.638Z,25.90
2019-05-03T23:14:50.390Z,26.00
2019-05-03T23:17:20.510Z,26.00
2019-05-03T23:19:56.632Z,26.00
2019-05-03T23:22:29.131Z,26.00
2019-05-03T23:24:58.890Z,26.10
2019-05-03T23:27:28.686Z,26.10
2019-05-03T23:29:58.438Z,26.10
2019-05-03T23:32:29.039Z,26.00
2019-05-03T23:34:59.325Z,26.10
2019-05-03T23:37:30.858Z,26.10
2019-05-03T23:40:00.605Z,26.00
2019-05-03T23:42:30.353Z,26.00
2019-05-03T23:45:02.346Z,26.00
2019-05-03T23:47:40.262Z,26.00
2019-05-03T23:50:13.949Z,26.10
2019-05-03T23:52:45.168Z,26.10
2019-05-03T23:55:27.699Z,26.10
2019-05-03T23:57:57.482Z,26.00
